Time;durP1;ratioP1;P1;durP2;ratioP2;P2;SDS_P1;SDS_P2;PMS_P1;PMS_P2;Temp;Humidity;BMP_temperature;BMP_pressure;BME280_temperature;BME280_humidity;BME280_pressure;Samples;Min_cycle;Max_cycle;Signal;HPM_P1;HPM_P2
2024/01/06 00:00:42;;;;;;;19.05;15.23;;;10.40;81.50;;;;;;5013257;28;20045;-66
2024/01/06 00:03:11;;;;;;;18.25;14.32;;;10.40;81.50;;;;;;5016897;28;20107;-65
2024/01/06 00:05:43;;;;;;;22.85;16.63;;;10.40;81.50;;;;;;5010523;28;20053;-66
2024/01/06 00:08:10;;;;;;;20.13;15.65;;;10.40;81.50;;;;;;5001309;28;20950;-66
2024/01/06 00:10:37;;;;;;;17.40;14.73;;;10.40;81.40;;;;;;5018136;28;20103;-66
2024/01/06 00:13:03;;;;;;;19.02;15.23;;;10.40;81.40;;;;;;5000284;28;20073;-66
2024/01/06 00:15:32;;;;;;;20.15;15.45;;;10.40;81.50;;;;;;4994577;28;20409;-65
2024/01/06 00:17:59;;;;;;;20.98;15.10;;;10.40;81.60;;;;;;5012970;28;20499;-65
2024/01/06 00:20:28;;;;;;;22.15;16.45;;;10.40;81.60;;;;;;5008666;28;20042;-66
2024/01/06 00:22:58;;;;;;;21.75;16.55;;;10.50;81.70;;;;;;4989332;28;20073;-66
2024/01/06 00:25:25;;;;;;;22.20;17.23;;;10.50;81.80;;;;;;5012386;28;20049;-66
2024/01/06 00:27:54;;;;;;;23.52;16.67;;;10.50;81.70;;;;;;5001224;28;20488;-66
2024/01/06 00:30:22;;;;;;;20.48;16.40;;;10.50;81.70;;;;;;4978559;28;20049;-66
2024/01/06 00:32:51;;;;;;;24.80;16.60;;;10.50;81.80;;;;;;4975465;28;20144;-66
2024/01/06 00:35:20;;;;;;;21.52;16.42;;;10.50;81.80;;;;;;5002076;28;20494;-66
2024/01/06 00:37:48;;;;;;;21.02;16.58;;;10.50;81.70;;;;;;5002926;28;20049;-66
2024/01/06 00:40:14;;;;;;;24.25;17.75;;;10.50;81.80;;;;;;5006380;28;20054;-65
2024/01/06 00:42:41;;;;;;;21.77;16.63;;;10.50;81.80;;;;;;5011771;28;20045;-66
2024/01/06 00:45:09;;;;;;;23.80;18.55;;;10.50;81.80;;;;;;5016876;28;20056;-66
2024/01/06 00:47:36;;;;;;;21.85;16.50;;;10.50;81.80;;;;;;5012915;28;20057;-66
2024/01/06 00:50:02;;;;;;;24.85;17.90;;;10.50;81.70;;;;;;5010332;28;20048;-66
2024/01/06 00:52:29;;;;;;;25.23;18.67;;;10.50;81.80;;;;;;5007764;28;20034;-66
2024/01/06 00:54:59;;;;;;;24.63;19.17;;;10.50;81.80;;;;;;5019607;28;20224;-66
2024/01/06 00:57:26;;;;;;;24.38;17.83;;;10.50;81.80;;;;;;5019516;28;20065;-63
2024/01/06 00:59:57;;;;;;;23.98;18.42;;;10.50;81.80;;;;;;5030069;28;20152;-63
2024/01/06 01:02:26;;;;;;;26.27;19.95;;;10.50;81.80;;;;;;5029175;28;20041;-64
2024/01/06 01:04:55;;;;;;;24.60;18.20;;;10.50;81.80;;;;;;5022613;28;20045;-63
2024/01/06 01:07:24;;;;;;;26.38;18.73;;;10.60;81.80;;;;;;5029768;28;20069;-63
2024/01/06 01:09:52;;;;;;;29.15;19.60;;;10.60;81.90;;;;;;5030064;28;20053;-63
2024/01/06 01:12:24;;;;;;;26.45;18.73;;;10.60;81.80;;;;;;5026527;28;20400;-63
2024/01/06 01:14:51;;;;;;;25.65;19.52;;;10.60;81.80;;;;;;5030109;28;20463;-63
2024/01/06 01:17:21;;;;;;;26.23;19.10;;;10.60;81.70;;;;;;5025298;28;20103;-65
2024/01/06 01:19:47;;;;;;;27.35;19.58;;;10.60;81.80;;;;;;5023950;28;20107;-65
2024/01/06 01:22:15;;;;;;;28.42;19.55;;;10.60;81.80;;;;;;5030270;28;20041;-65
2024/01/06 01:24:46;;;;;;;31.35;20.73;;;10.60;81.80;;;;;;5022105;28;20048;-65
2024/01/06 01:27:13;;;;;;;27.45;20.58;;;10.60;81.80;;;;;;5026938;28;20053;-65
2024/01/06 01:29:40;;;;;;;29.15;20.75;;;10.60;81.80;;;;;;5024093;28;20186;-65
2024/01/06 01:32:06;;;;;;;24.58;19.27;;;10.60;81.80;;;;;;5030273;28;20496;-65
2024/01/06 01:34:34;;;;;;;28.02;19.88;;;10.60;81.80;;;;;;5030129;28;20037;-65
2024/01/06 01:37:01;;;;;;;29.27;21.65;;;10.60;81.70;;;;;;5022707;28;20073;-65
2024/01/06 01:39:27;;;;;;;28.73;20.40;;;10.60;81.70;;;;;;5028203;28;20045;-65
2024/01/06 01:41:54;;;;;;;29.02;20.10;;;10.60;81.70;;;;;;5030166;28;20046;-65
2024/01/06 01:44:23;;;;;;;30.02;21.08;;;10.70;81.60;;;;;;5029268;28;20053;-65
2024/01/06 01:46:53;;;;;;;27.48;20.77;;;10.60;81.60;;;;;;5026209;28;20974;-65
2024/01/06 01:49:25;;;;;;;30.45;21.33;;;10.70;81.60;;;;;;5023301;28;20095;-65
2024/01/06 01:51:56;;;;;;;29.88;20.85;;;10.60;81.50;;;;;;5025499;28;20049;-65
2024/01/06 01:54:23;;;;;;;30.33;21.05;;;10.60;81.50;;;;;;5012716;28;20045;-65
2024/01/06 01:56:51;;;;;;;28.08;20.27;;;10.60;81.40;;;;;;5026364;28;20137;-65
2024/01/06 01:59:19;;;;;;;28.85;21.40;;;10.60;81.50;;;;;;5029588;28;20065;-65
2024/01/06 02:01:47;;;;;;;29.65;21.77;;;10.70;81.60;;;;;;5030430;28;20052;-65
2024/01/06 02:04:16;;;;;;;30.20;20.73;;;10.60;81.50;;;;;;5026501;28;20111;-65
2024/01/06 02:06:45;;;;;;;31.13;21.90;;;10.60;81.50;;;;;;5018019;28;20049;-65
2024/01/06 02:09:14;;;;;;;30.40;21.08;;;10.60;81.50;;;;;;5029659;28;20145;-65
2024/01/06 02:11:43;;;;;;;30.30;21.55;;;10.70;81.50;;;;;;5028842;28;20041;-65
2024/01/06 02:14:09;;;;;;;28.15;20.33;;;10.60;81.50;;;;;;5025042;28;20112;-65
2024/01/06 02:16:38;;;;;;;29.85;21.38;;;10.60;81.50;;;;;;5023685;28;20050;-65
2024/01/06 02:19:12;;;;;;;32.47;20.20;;;10.60;81.40;;;;;;5019445;28;20037;-65
2024/01/06 02:21:43;;;;;;;29.27;21.38;;;10.60;81.30;;;;;;5029771;28;20055;-65
2024/01/06 02:24:10;;;;;;;30.58;20.92;;;10.60;81.30;;;;;;5030030;28;20469;-65
2024/01/06 02:26:37;;;;;;;28.27;20.42;;;10.60;81.30;;;;;;5028543;28;20069;-65
2024/01/06 02:29:04;;;;;;;28.35;21.08;;;10.60;81.30;;;;;;5025216;28;20412;-65
2024/01/06 02:31:34;;;;;;;28.30;20.67;;;10.50;81.20;;;;;;5029353;28;20504;-65
2024/01/06 02:34:02;;;;;;;29.80;21.27;;;10.50;81.30;;;;;;5029804;28;20092;-65
2024/01/06 02:36:35;;;;;;;26.02;20.80;;;10.50;81.30;;;;;;5023127;28;20042;-65
2024/01/06 02:39:02;;;;;;;27.48;20.40;;;10.50;81.30;;;;;;5028719;28;20042;-65
2024/01/06 02:41:29;;;;;;;30.25;20.83;;;10.50;81.40;;;;;;5029455;28;20033;-65
2024/01/06 02:43:58;;;;;;;29.73;20.63;;;10.50;81.40;;;;;;5029390;28;20061;-65
2024/01/06 02:46:26;;;;;;;32.78;20.90;;;10.50;81.30;;;;;;5022617;28;20046;-65
2024/01/06 02:48:55;;;;;;;30.08;20.92;;;10.50;81.40;;;;;;5022845;28;20041;-65
2024/01/06 02:51:27;;;;;;;29.08;21.08;;;10.50;81.40;;;;;;5028767;28;20045;-65
2024/01/06 02:53:58;;;;;;;27.35;19.05;;;10.50;81.30;;;;;;5029467;28;20051;-65
2024/01/06 02:56:27;;;;;;;26.98;19.98;;;10.50;81.30;;;;;;5028557;28;20440;-65
2024/01/06 02:58:55;;;;;;;32.35;22.25;;;10.50;81.30;;;;;;5022768;28;20569;-65
2024/01/06 03:01:22;;;;;;;29.27;20.90;;;10.50;81.20;;;;;;5026640;28;20384;-65
2024/01/06 03:03:49;;;;;;;26.90;20.00;;;10.50;81.20;;;;;;5029589;28;20056;-65
2024/01/06 03:06:16;;;;;;;28.63;20.38;;;10.50;81.30;;;;;;5023621;28;20500;-65
2024/01/06 03:08:43;;;;;;;26.13;18.98;;;10.50;81.30;;;;;;5023702;28;20051;-65
2024/01/06 03:11:10;;;;;;;27.42;18.58;;;10.40;80.90;;;;;;5027241;28;20069;-64
2024/01/06 03:13:39;;;;;;;26.10;18.33;;;10.50;80.80;;;;;;5026477;28;20045;-65
2024/01/06 03:16:11;;;;;;;24.77;18.15;;;10.40;80.70;;;;;;5025295;28;20052;-65
2024/01/06 03:18:38;;;;;;;23.90;17.40;;;10.50;80.70;;;;;;5020844;28;20128;-65
2024/01/06 03:21:05;;;;;;;26.70;18.83;;;10.50;80.70;;;;;;5027840;28;20096;-66
2024/01/06 03:23:31;;;;;;;26.15;17.70;;;10.40;80.60;;;;;;5028585;28;20104;-65
2024/01/06 03:25:58;;;;;;;24.48;17.15;;;10.40;80.40;;;;;;5026750;28;20049;-65
2024/01/06 03:28:28;;;;;;;26.38;17.23;;;10.40;80.30;;;;;;5027584;28;20049;-65
2024/01/06 03:30:54;;;;;;;21.50;16.23;;;10.40;80.20;;;;;;5028571;28;20046;-65
2024/01/06 03:33:21;;;;;;;23.65;16.23;;;10.40;80.00;;;;;;5028031;28;20041;-65
2024/01/06 03:35:48;;;;;;;21.92;16.30;;;10.40;80.00;;;;;;5025951;28;20108;-65
2024/01/06 03:38:15;;;;;;;25.45;16.30;;;10.30;79.90;;;;;;5028184;28;20520;-65
2024/01/06 03:40:42;;;;;;;22.05;15.32;;;10.30;80.00;;;;;;5028793;28;20045;-65
2024/01/06 03:43:09;;;;;;;22.85;15.55;;;10.30;79.70;;;;;;5026747;28;20042;-65
2024/01/06 03:45:35;;;;;;;23.92;16.13;;;10.30;79.80;;;;;;5026469;28;20045;-65
2024/01/06 03:48:02;;;;;;;23.70;14.95;;;10.30;79.90;;;;;;5025663;28;20056;-65
2024/01/06 03:50:39;;;;;;;20.42;14.13;;;10.30;79.70;;;;;;5027725;28;20048;-65
2024/01/06 03:53:08;;;;;;;20.45;14.07;;;10.20;79.70;;;;;;5028814;28;20120;-65
2024/01/06 03:55:34;;;;;;;20.00;12.75;;;10.20;79.70;;;;;;5010904;28;20454;-65
2024/01/06 03:58:01;;;;;;;19.05;12.43;;;10.20;79.40;;;;;;5023024;28;20397;-65
2024/01/06 04:00:28;;;;;;;17.42;11.93;;;10.20;79.10;;;;;;5028643;28;20037;-65
2024/01/06 04:02:54;;;;;;;19.30;13.00;;;10.20;78.90;;;;;;5028915;28;20050;-65
2024/01/06 04:05:21;;;;;;;18.00;12.32;;;10.10;78.60;;;;;;5026846;28;20132;-65
2024/01/06 04:07:48;;;;;;;16.58;12.27;;;10.10;78.50;;;;;;5027286;28;20135;-64
2024/01/06 04:10:15;;;;;;;16.55;11.63;;;10.10;78.30;;;;;;5030793;28;20069;-65
2024/01/06 04:12:45;;;;;;;17.25;12.13;;;10.00;78.10;;;;;;5026432;28;20072;-65
2024/01/06 04:15:12;;;;;;;18.33;11.65;;;10.00;78.00;;;;;;5029663;28;20033;-65
2024/01/06 04:17:39;;;;;;;16.95;12.10;;;10.00;77.90;;;;;;5026276;28;20492;-65
2024/01/06 04:20:11;;;;;;;16.60;11.73;;;9.90;78.00;;;;;;5027243;28;20041;-65
2024/01/06 04:22:40;;;;;;;18.33;12.27;;;9.90;77.90;;;;;;5031508;28;20111;-65
2024/01/06 04:25:09;;;;;;;17.03;11.93;;;9.80;77.80;;;;;;5031579;28;20116;-65
2024/01/06 04:27:36;;;;;;;17.75;12.35;;;9.80;77.90;;;;;;5029025;28;20473;-65
2024/01/06 04:30:03;;;;;;;21.02;12.80;;;9.80;78.00;;;;;;5031313;28;20045;-64
2024/01/06 04:32:30;;;;;;;19.30;12.60;;;9.70;77.90;;;;;;5032247;28;20121;-65
2024/01/06 04:34:59;;;;;;;17.48;11.68;;;9.70;78.00;;;;;;5027118;28;20050;-65
2024/01/06 04:37:26;;;;;;;17.85;12.55;;;9.60;77.80;;;;;;5031055;28;20041;-65
2024/01/06 04:39:53;;;;;;;16.10;11.00;;;9.60;77.80;;;;;;5031586;28;20045;-65
2024/01/06 04:42:22;;;;;;;16.15;11.25;;;9.60;77.80;;;;;;5031620;28;20045;-65
2024/01/06 04:44:50;;;;;;;14.70;10.73;;;9.60;77.80;;;;;;5028389;28;20053;-65
2024/01/06 04:47:17;;;;;;;14.63;10.85;;;9.50;77.90;;;;;;5031173;28;20041;-65
2024/01/06 04:49:44;;;;;;;12.90;9.45;;;9.50;78.00;;;;;;5019965;28;20474;-65
2024/01/06 04:52:11;;;;;;;14.13;9.30;;;9.50;77.90;;;;;;5030376;28;20049;-65
2024/01/06 04:54:38;;;;;;;17.17;11.18;;;9.40;77.90;;;;;;5029290;28;20124;-64
2024/01/06 04:57:05;;;;;;;14.38;9.95;;;9.40;78.00;;;;;;5028337;28;20042;-65
2024/01/06 04:59:32;;;;;;;15.65;10.45;;;9.40;78.10;;;;;;5030290;28;20301;-65
2024/01/06 05:01:59;;;;;;;15.50;10.50;;;9.40;78.20;;;;;;5030934;28;20091;-65
2024/01/06 05:04:26;;;;;;;16.30;10.05;;;9.30;78.30;;;;;;5027819;28;20381;-65
2024/01/06 05:06:57;;;;;;;14.18;9.63;;;9.30;78.10;;;;;;5026295;28;20415;-65
2024/01/06 05:09:25;;;;;;;13.77;9.80;;;9.30;78.10;;;;;;5030551;28;20046;-65
2024/01/06 05:11:52;;;;;;;13.07;9.25;;;9.30;78.00;;;;;;5030765;28;20045;-64
2024/01/06 05:14:21;;;;;;;11.93;9.07;;;9.30;78.10;;;;;;5030375;28;20041;-65
2024/01/06 05:16:48;;;;;;;15.43;9.93;;;9.20;78.00;;;;;;5009963;28;20100;-65
2024/01/06 05:19:19;;;;;;;13.70;9.02;;;9.20;77.90;;;;;;5024324;28;20125;-65
2024/01/06 05:21:50;;;;;;;12.50;8.90;;;9.20;77.90;;;;;;5027246;28;20046;-65
2024/01/06 05:24:17;;;;;;;11.77;8.52;;;9.20;77.80;;;;;;5030860;28;20399;-64
2024/01/06 05:26:46;;;;;;;11.95;7.97;;;9.20;77.80;;;;;;5029877;28;20045;-64
2024/01/06 05:29:18;;;;;;;11.20;8.23;;;9.20;77.80;;;;;;5023483;28;20447;-64
2024/01/06 05:31:48;;;;;;;11.65;8.05;;;9.20;77.30;;;;;;5023219;28;20077;-65
2024/01/06 05:34:18;;;;;;;11.10;8.07;;;9.10;77.10;;;;;;5030121;28;20480;-65
2024/01/06 05:36:47;;;;;;;11.23;7.28;;;9.10;77.00;;;;;;5012546;28;20511;-64
2024/01/06 05:39:14;;;;;;;11.02;8.05;;;9.10;77.00;;;;;;5029873;28;20053;-64
2024/01/06 05:41:44;;;;;;;9.65;7.38;;;9.10;77.20;;;;;;5006112;28;20053;-65
2024/01/06 05:44:10;;;;;;;11.45;7.60;;;9.10;77.00;;;;;;5027483;28;20499;-64
2024/01/06 05:46:39;;;;;;;10.32;7.05;;;9.00;76.80;;;;;;5030257;28;20124;-64
2024/01/06 05:49:06;;;;;;;10.88;6.82;;;9.00;76.80;;;;;;5027169;28;20124;-65
2024/01/06 05:51:33;;;;;;;10.85;7.28;;;9.20;77.00;;;;;;5010517;28;20047;-65
2024/01/06 05:53:59;;;;;;;11.35;7.63;;;9.00;76.90;;;;;;5030534;28;20042;-65
2024/01/06 05:56:27;;;;;;;11.65;7.38;;;9.00;77.00;;;;;;5028929;28;20619;-65
2024/01/06 05:58:54;;;;;;;10.20;7.60;;;9.00;77.10;;;;;;5025245;28;20127;-64
2024/01/06 06:01:21;;;;;;;10.65;7.18;;;9.00;77.10;;;;;;5029603;28;20095;-65
2024/01/06 06:03:50;;;;;;;10.50;6.78;;;9.00;76.90;;;;;;5029753;28;20057;-64
2024/01/06 06:06:22;;;;;;;11.00;7.30;;;9.00;76.90;;;;;;5030066;28;20049;-65
2024/01/06 06:08:49;;;;;;;12.60;8.68;;;9.00;76.90;;;;;;5025664;28;20049;-65
2024/01/06 06:11:16;;;;;;;12.18;7.75;;;9.00;76.90;;;;;;5029289;28;20073;-64
2024/01/06 06:13:45;;;;;;;13.75;9.07;;;9.00;76.80;;;;;;5023278;28;20045;-65
2024/01/06 06:16:12;;;;;;;11.73;8.40;;;9.00;77.10;;;;;;5027106;28;20084;-65
2024/01/06 06:18:39;;;;;;;14.23;9.77;;;9.00;76.50;;;;;;5021785;28;20122;-64
2024/01/06 06:21:12;;;;;;;13.48;9.30;;;8.90;76.40;;;;;;5025917;28;20120;-65
2024/01/06 06:23:41;;;;;;;11.65;8.85;;;9.00;76.60;;;;;;5028949;28;20132;-65
2024/01/06 06:26:09;;;;;;;14.48;8.85;;;8.90;76.60;;;;;;5029507;28;20125;-65
2024/01/06 06:28:36;;;;;;;12.38;8.75;;;8.90;76.70;;;;;;5025385;28;20140;-65
2024/01/06 06:31:03;;;;;;;13.77;8.25;;;8.90;76.80;;;;;;5029284;28;20124;-65
2024/01/06 06:33:30;;;;;;;13.77;9.00;;;8.80;76.70;;;;;;5028823;28;20034;-65
2024/01/06 06:35:57;;;;;;;16.23;9.73;;;8.80;76.80;;;;;;5029867;28;20540;-64
2024/01/06 06:38:26;;;;;;;13.20;8.13;;;8.80;76.80;;;;;;5024494;28;20077;-65
2024/01/06 06:40:56;;;;;;;11.85;8.45;;;8.80;76.70;;;;;;5028807;28;20110;-64
2024/01/06 06:43:22;;;;;;;14.27;8.95;;;8.80;76.50;;;;;;5028817;28;20553;-64
2024/01/06 06:45:52;;;;;;;12.45;8.23;;;8.80;76.50;;;;;;5029480;28;20095;-65
2024/01/06 06:48:18;;;;;;;11.27;8.13;;;8.80;76.40;;;;;;5019731;28;20407;-64
2024/01/06 06:50:45;;;;;;;11.93;8.68;;;8.80;76.40;;;;;;5025660;28;20049;-65
2024/01/06 06:53:12;;;;;;;12.18;8.35;;;8.70;76.30;;;;;;5029552;28;20519;-65
2024/01/06 06:55:40;;;;;;;12.15;8.45;;;8.70;76.40;;;;;;5029395;28;20685;-64
2024/01/06 06:58:07;;;;;;;13.23;8.50;;;8.70;76.50;;;;;;5025466;28;20953;-65
2024/01/06 07:00:35;;;;;;;11.57;8.30;;;8.70;76.60;;;;;;5007979;28;20077;-62
2024/01/06 07:03:05;;;;;;;12.70;8.63;;;8.70;76.60;;;;;;5019823;23;20088;-54
2024/01/06 07:05:32;;;;;;;12.68;8.60;;;8.70;76.60;;;;;;5043214;28;20041;-52
2024/01/06 07:08:00;;;;;;;12.48;9.00;;;8.70;76.70;;;;;;5046950;28;20154;-50
2024/01/06 07:10:30;;;;;;;12.87;7.97;;;8.70;76.70;;;;;;5046844;28;20033;-57
2024/01/06 07:12:57;;;;;;;12.63;8.80;;;8.70;76.70;;;;;;5045060;28;21103;-53
2024/01/06 07:15:23;;;;;;;13.02;8.68;;;8.70;77.30;;;;;;5044891;28;20044;-54
2024/01/06 07:17:50;;;;;;;13.43;9.27;;;8.70;76.70;;;;;;5039914;28;20041;-50
2024/01/06 07:20:17;;;;;;;12.55;8.18;;;8.70;76.70;;;;;;5045351;28;20044;-55
2024/01/06 07:22:49;;;;;;;13.75;8.80;;;8.70;76.70;;;;;;5028030;28;20045;-55
2024/01/06 07:25:15;;;;;;;15.07;8.30;;;8.70;76.70;;;;;;5034718;28;20048;-55
2024/01/06 07:27:45;;;;;;;13.27;8.55;;;8.70;76.60;;;;;;5030078;28;20740;-54
2024/01/06 07:30:12;;;;;;;11.63;8.80;;;8.70;76.50;;;;;;5045773;28;20406;-57
2024/01/06 07:32:43;;;;;;;12.13;8.07;;;8.70;77.10;;;;;;5040603;28;20068;-55
2024/01/06 07:35:10;;;;;;;12.40;8.65;;;8.70;76.40;;;;;;5047433;28;20037;-53
2024/01/06 07:37:37;;;;;;;13.05;8.65;;;8.70;76.40;;;;;;5029854;28;20051;-51
2024/01/06 07:40:06;;;;;;;12.38;8.20;;;8.70;76.30;;;;;;5033878;28;20549;-56
2024/01/06 07:42:34;;;;;;;12.93;7.60;;;8.70;76.40;;;;;;5031715;28;20065;-54
2024/01/06 07:45:03;;;;;;;11.85;8.30;;;8.70;76.40;;;;;;5035166;28;20040;-53
2024/01/06 07:47:29;;;;;;;12.65;8.32;;;8.70;76.40;;;;;;5035012;28;20045;-52
2024/01/06 07:49:57;;;;;;;11.38;8.10;;;8.70;76.40;;;;;;5041584;28;20488;-52
2024/01/06 07:52:24;;;;;;;12.23;8.40;;;8.70;76.30;;;;;;5016178;28;20512;-57
2024/01/06 07:54:51;;;;;;;10.20;7.57;;;8.70;76.10;;;;;;5023343;28;20116;-56
2024/01/06 07:57:20;;;;;;;14.45;9.45;;;8.70;76.20;;;;;;5044714;28;20152;-52
2024/01/06 07:59:47;;;;;;;12.82;8.23;;;8.70;76.10;;;;;;5040629;28;20056;-60
2024/01/06 08:02:16;;;;;;;12.07;8.55;;;8.70;76.10;;;;;;5030810;28;20060;-56
2024/01/06 08:04:44;;;;;;;13.15;9.20;;;8.70;76.10;;;;;;5046465;28;20103;-60
2024/01/06 08:07:13;;;;;;;12.07;8.15;;;8.70;76.10;;;;;;5037736;28;20468;-58
2024/01/06 08:09:40;;;;;;;12.20;7.60;;;8.70;76.20;;;;;;5033955;28;20049;-58
2024/01/06 08:12:08;;;;;;;11.10;8.13;;;8.70;76.10;;;;;;5042455;28;20113;-59
2024/01/06 08:14:34;;;;;;;9.48;7.13;;;8.70;76.10;;;;;;5041672;28;20132;-59
2024/01/06 08:17:03;;;;;;;12.27;8.05;;;8.80;76.10;;;;;;5042113;28;20552;-58
2024/01/06 08:19:32;;;;;;;11.93;8.00;;;8.70;76.10;;;;;;5051520;28;20548;-60
2024/01/06 08:21:59;;;;;;;11.82;7.97;;;8.80;76.10;;;;;;5053376;28;20076;-57
2024/01/06 08:24:26;;;;;;;10.27;6.70;;;8.80;76.10;;;;;;5036736;28;20052;-59
2024/01/06 08:26:53;;;;;;;12.45;8.57;;;8.80;76.10;;;;;;5046784;28;20853;-59
2024/01/06 08:29:20;;;;;;;11.38;8.10;;;8.80;76.10;;;;;;5034815;28;20048;-58
2024/01/06 08:31:47;;;;;;;14.15;9.18;;;8.80;76.10;;;;;;5048187;28;20411;-57
2024/01/06 08:34:14;;;;;;;11.07;7.35;;;8.80;76.10;;;;;;5033493;28;20124;-57
2024/01/06 08:36:41;;;;;;;11.77;8.52;;;8.80;76.20;;;;;;5040060;28;20103;-60
2024/01/06 08:39:08;;;;;;;10.48;7.70;;;8.80;76.30;;;;;;5036853;28;20065;-57
2024/01/06 08:41:35;;;;;;;12.27;8.20;;;8.80;76.30;;;;;;5046580;28;20064;-61
2024/01/06 08:44:02;;;;;;;12.95;8.55;;;8.80;76.20;;;;;;5023142;28;20041;-59
2024/01/06 08:46:28;;;;;;;12.48;8.77;;;8.80;76.10;;;;;;5051304;28;20037;-59
2024/01/06 08:48:55;;;;;;;11.73;8.20;;;8.80;76.10;;;;;;5034706;28;20049;-59
2024/01/06 08:51:23;;;;;;;11.20;8.43;;;8.80;76.20;;;;;;5049828;28;20037;-56
2024/01/06 08:53:50;;;;;;;11.55;7.78;;;8.80;76.30;;;;;;5034548;28;20041;-56
2024/01/06 08:56:17;;;;;;;13.10;8.63;;;8.80;76.20;;;;;;5039343;28;20045;-56
2024/01/06 08:58:44;;;;;;;11.60;8.27;;;8.80;76.20;;;;;;5037684;28;20049;-59
2024/01/06 09:01:11;;;;;;;13.30;8.05;;;8.80;76.30;;;;;;5046767;28;20591;-57
2024/01/06 09:03:38;;;;;;;11.50;7.60;;;8.80;76.30;;;;;;5039951;28;20052;-59
2024/01/06 09:06:05;;;;;;;12.80;8.73;;;8.80;76.30;;;;;;5042336;28;20064;-57
2024/01/06 09:08:31;;;;;;;14.63;8.80;;;8.80;76.20;;;;;;5042566;28;20566;-58
2024/01/06 09:10:58;;;;;;;13.70;8.55;;;8.70;76.10;;;;;;5034861;28;20152;-58
2024/01/06 09:13:25;;;;;;;13.27;8.57;;;8.70;76.10;;;;;;5034127;28;20049;-57
2024/01/06 09:15:52;;;;;;;15.38;9.27;;;8.70;76.20;;;;;;5046527;28;20566;-59
2024/01/06 09:18:19;;;;;;;12.45;8.48;;;8.70;76.30;;;;;;5039223;28;20120;-59
2024/01/06 09:20:47;;;;;;;14.55;9.02;;;8.70;76.30;;;;;;5045060;28;20047;-59
2024/01/06 09:23:16;;;;;;;14.52;9.00;;;8.60;76.40;;;;;;5041676;28;20037;-58
2024/01/06 09:25:42;;;;;;;14.65;9.20;;;8.60;76.60;;;;;;5036421;28;20044;-57
2024/01/06 09:28:10;;;;;;;14.52;10.00;;;8.60;76.70;;;;;;5041014;28;20530;-59
2024/01/06 09:30:37;;;;;;;15.63;9.02;;;8.60;76.60;;;;;;5035906;28;20073;-58
2024/01/06 09:33:04;;;;;;;14.48;8.93;;;8.60;76.60;;;;;;5039089;28;20069;-58
2024/01/06 09:35:31;;;;;;;12.90;8.45;;;8.50;76.50;;;;;;5036685;28;20043;-56
2024/01/06 09:37:57;;;;;;;13.85;8.95;;;8.50;76.70;;;;;;5049585;28;20049;-59
2024/01/06 09:40:24;;;;;;;14.40;9.10;;;8.50;76.80;;;;;;5020483;28;20128;-58
2024/01/06 09:42:51;;;;;;;15.50;9.68;;;8.50;76.90;;;;;;5039146;28;20051;-58
2024/01/06 09:45:22;;;;;;;14.68;9.70;;;8.50;76.90;;;;;;5037427;28;20053;-58
2024/01/06 09:47:50;;;;;;;15.02;8.95;;;8.50;77.00;;;;;;5043925;28;20072;-57
2024/01/06 09:50:21;;;;;;;15.13;9.38;;;8.50;77.10;;;;;;5021413;28;20164;-58
2024/01/06 09:52:54;;;;;;;15.00;9.15;;;8.50;77.10;;;;;;5039668;28;20056;-58
2024/01/06 09:55:26;;;;;;;15.80;10.00;;;8.50;77.30;;;;;;5037137;28;20045;-58
2024/01/06 09:57:53;;;;;;;16.73;10.43;;;8.40;77.20;;;;;;5041618;28;20041;-59
2024/01/06 10:00:21;;;;;;;14.93;10.10;;;8.40;77.20;;;;;;5032080;28;20500;-58
2024/01/06 10:02:49;;;;;;;14.13;9.18;;;8.50;77.40;;;;;;5042618;28;20041;-58
2024/01/06 10:05:17;;;;;;;18.17;11.07;;;8.40;77.40;;;;;;5037883;28;20110;-57
2024/01/06 10:07:45;;;;;;;14.07;10.13;;;8.40;77.50;;;;;;5040177;28;20057;-59
2024/01/06 10:10:12;;;;;;;16.75;10.25;;;8.40;77.50;;;;;;5036100;28;20128;-57
2024/01/06 10:12:40;;;;;;;17.65;10.82;;;8.40;77.40;;;;;;5038956;28;20057;-58
2024/01/06 10:15:11;;;;;;;18.55;10.90;;;8.40;77.30;;;;;;5036091;28;20033;-58
2024/01/06 10:17:41;;;;;;;17.17;11.47;;;8.50;77.10;;;;;;5039525;28;20560;-58
2024/01/06 10:20:13;;;;;;;18.83;11.77;;;8.40;76.90;;;;;;5042740;28;20280;-59
2024/01/06 10:22:41;;;;;;;16.73;10.25;;;8.40;76.80;;;;;;5039663;28;20056;-59
2024/01/06 10:25:09;;;;;;;16.55;10.02;;;8.40;76.90;;;;;;5026088;28;20079;-59
2024/01/06 10:27:38;;;;;;;18.02;10.80;;;8.40;77.00;;;;;;5040483;28;20049;-59
2024/01/06 10:30:06;;;;;;;15.18;10.40;;;8.30;76.80;;;;;;5048792;28;20460;-57
2024/01/06 10:32:34;;;;;;;18.30;10.98;;;8.30;76.90;;;;;;5039435;28;20149;-56
2024/01/06 10:35:01;;;;;;;15.95;10.98;;;8.30;76.90;;;;;;5039856;28;20037;-57
2024/01/06 10:37:28;;;;;;;15.60;10.43;;;8.30;77.00;;;;;;5042400;28;20077;-58
2024/01/06 10:40:16;;;;;;;21.10;11.98;;;8.30;77.30;;;;;;5041556;28;20460;-58
2024/01/06 10:42:44;;;;;;;16.40;11.20;;;8.30;77.20;;;;;;5037747;28;20045;-57
2024/01/06 10:45:12;;;;;;;18.67;10.90;;;8.30;77.30;;;;;;5042628;28;20040;-57
2024/01/06 10:47:43;;;;;;;16.08;10.98;;;8.30;77.40;;;;;;5044749;28;20049;-60
2024/01/06 10:50:10;;;;;;;13.10;9.20;;;8.40;77.40;;;;;;5029813;28;20046;-60
2024/01/06 10:52:40;;;;;;;16.30;11.20;;;8.40;77.30;;;;;;5038553;28;20136;-58
2024/01/06 10:55:07;;;;;;;16.35;10.82;;;8.40;77.10;;;;;;5033945;28;20033;-58
2024/01/06 10:57:35;;;;;;;18.50;11.27;;;8.40;77.10;;;;;;5042638;28;20037;-60
2024/01/06 11:00:05;;;;;;;18.60;11.98;;;8.40;77.10;;;;;;5038618;28;20061;-58
2024/01/06 11:02:33;;;;;;;17.33;11.02;;;8.40;77.10;;;;;;5035923;28;20048;-58
2024/01/06 11:05:00;;;;;;;16.55;10.95;;;8.40;76.80;;;;;;5036962;28;20045;-58
2024/01/06 11:07:28;;;;;;;19.60;12.55;;;8.50;76.80;;;;;;5047441;28;20187;-57
2024/01/06 11:10:05;;;;;;;18.40;12.45;;;8.50;76.60;;;;;;5040580;28;20049;-59
2024/01/06 11:12:33;;;;;;;17.83;11.65;;;8.40;76.50;;;;;;5039706;28;20113;-56
2024/01/06 11:15:04;;;;;;;18.27;11.23;;;8.40;76.60;;;;;;5046518;28;20065;-58
2024/01/06 11:17:53;;;;;;;21.95;13.93;;;8.40;76.70;;;;;;5042680;28;20117;-58
2024/01/06 11:20:22;;;;;;;18.77;11.77;;;8.40;76.40;;;;;;5042831;28;20116;-56
2024/01/06 11:22:49;;;;;;;17.42;11.48;;;8.40;76.40;;;;;;5034980;28;20044;-59
2024/01/06 11:25:21;;;;;;;19.98;12.63;;;8.30;76.30;;;;;;5038658;28;20069;-57
2024/01/06 11:27:49;;;;;;;17.52;11.30;;;8.30;76.30;;;;;;5036544;28;20571;-58
2024/01/06 11:30:24;;;;;;;17.75;11.18;;;8.20;76.40;;;;;;5035789;28;20084;-59
2024/01/06 11:32:53;;;;;;;19.92;11.68;;;8.20;76.50;;;;;;5034513;28;20044;-56
2024/01/06 11:35:23;;;;;;;14.43;10.13;;;8.20;76.70;;;;;;5038699;28;20072;-57
2024/01/06 11:37:52;;;;;;;14.55;10.75;;;8.10;76.80;;;;;;5039540;28;20079;-57
2024/01/06 11:40:25;;;;;;;11.95;8.55;;;8.10;76.70;;;;;;5037139;28;20455;-57
2024/01/06 11:42:58;;;;;;;;;;;8.10;76.90;;;;;;5038651;28;20041;-59
2024/01/06 11:45:26;;;;;;;11.00;7.50;;;8.10;77.10;;;;;;5039113;28;19932;-57
2024/01/06 11:48:03;;;;;;;11.23;7.88;;;8.10;76.90;;;;;;5036323;28;20049;-60
2024/01/06 11:50:38;;;;;;;11.60;8.27;;;8.00;77.10;;;;;;5036959;28;20045;-56
2024/01/06 11:53:07;;;;;;;13.50;8.15;;;8.00;77.20;;;;;;5036659;28;20057;-59
2024/01/06 11:55:34;;;;;;;11.15;8.20;;;8.00;77.20;;;;;;5041984;28;20045;-58
2024/01/06 11:58:02;;;;;;;12.85;9.07;;;8.00;77.30;;;;;;5038779;28;20547;-57
2024/01/06 12:00:33;;;;;;;14.43;9.30;;;8.00;77.30;;;;;;5041098;28;20043;-60
2024/01/06 12:03:01;;;;;;;13.43;8.52;;;8.00;77.20;;;;;;5038701;28;20044;-57
2024/01/06 12:05:28;;;;;;;14.35;9.73;;;7.90;77.20;;;;;;5039313;28;20049;-59
2024/01/06 12:07:58;;;;;;;14.35;10.05;;;7.90;77.40;;;;;;5044538;28;20633;-55
2024/01/06 12:10:26;;;;;;;14.75;10.45;;;7.90;77.40;;;;;;5034371;28;20076;-57
2024/01/06 12:13:09;;;;;;;17.95;11.77;;;7.90;77.40;;;;;;5044222;28;20067;-59
2024/01/06 12:15:39;;;;;;;19.85;12.23;;;7.90;77.50;;;;;;5043210;28;20052;-56
2024/01/06 12:18:10;;;;;;;19.45;12.02;;;7.90;77.60;;;;;;5038925;28;20033;-57
2024/01/06 12:20:37;;;;;;;21.85;13.63;;;7.90;77.60;;;;;;5038410;28;20048;-57
2024/01/06 12:23:05;;;;;;;21.63;13.77;;;7.80;77.50;;;;;;5037764;28;20041;-57
2024/01/06 12:25:35;;;;;;;20.33;13.55;;;7.80;77.60;;;;;;5035596;28;20127;-60
2024/01/06 12:28:06;;;;;;;19.42;12.80;;;7.80;77.60;;;;;;5035364;28;20055;-58
2024/01/06 12:30:35;;;;;;;19.30;13.32;;;7.80;77.50;;;;;;5042020;28;20064;-58
2024/01/06 12:33:01;;;;;;;20.38;13.40;;;7.70;77.50;;;;;;5045545;28;20094;-57
2024/01/06 12:35:28;;;;;;;21.75;14.32;;;7.80;77.70;;;;;;5039922;28;20041;-57
2024/01/06 12:37:55;;;;;;;20.15;13.18;;;7.70;77.60;;;;;;5045525;28;20123;-58
2024/01/06 12:40:22;;;;;;;22.58;15.07;;;7.70;77.70;;;;;;5040341;28;20112;-56
2024/01/06 12:42:49;;;;;;;19.35;12.80;;;7.70;77.70;;;;;;5045863;28;20482;-53